Accueil
METAR-TAF:

METAR-TAF

Aéroports :

Larnaca, Chypre

Aéroport international de Larnaca

latitude: 34-53N, longitude: 033-38E, altitude: 2 m

Observation

Le bulletin a été fait il y a 23 minutes, à 20:00 UTC
Vent 6 kt de nord-ouest
Température 17°C
Humidité 36%
Pression 1014 hPa
Visibilité 10 km ou plus
pas de nuages en-dessous de 1500 mètres et pas de cumulonimbus.

METAR: LCLK 222000Z 31006KT CAVOK 17/02 Q1014 NOSIG

Heure: 23:23 (20:23 UTC)

Prévision

Le bulletin a été fait il y a 2 heures et 53 minutes, à 17:30 UTC
Prévision valable du 22 à 18 UTC au 23 à 18 UTC
Vent 7 kt de nord-ouest
Visibilité 10 km ou plus
pas de nuages en-dessous de 1500 mètres et pas de cumulonimbus.
Evoluant progressivement
du 23 à 08 UTC au 23 à 12 UTC
Vent 14 kt de sud/sud-ouest

TAF: LCLK 221730Z 2218/2318 32007KT CAVOK BECMG 2308/2312 21014KT

Observations et prévisions météorologiques de plus de 4000 aéroports (messages METAR et TAF).

Les stations disponibles sont représentées par des disques jaunes et rouges sur la carte.

Passer la souris dessus pour voir le nom de la station.

Cliquer dessus pour voir les observations et prévisions météorologiques.

Pour changer de carte: cliquez sur les boutons verts avec une croix noire pour zoomer, sur le bouton vert avec un tiret pour effectuer un zoom arrière, ou sur les flèches vertes pour les cartes adjacentes.


METAR-TAF: